sensor_id;sensor_type;location;lat;lon;timestamp;temperature;humidity
72114;SHT31;59989;46.220;19.888;2022-12-05T00:02:28;4.41;95.02
72114;SHT31;59989;46.220;19.888;2022-12-05T00:05:31;4.41;95.08
72114;SHT31;59989;46.220;19.888;2022-12-05T00:08:33;4.41;95.16
72114;SHT31;59989;46.220;19.888;2022-12-05T00:11:38;4.41;95.06
72114;SHT31;59989;46.220;19.888;2022-12-05T00:14:41;4.44;95.02
72114;SHT31;59989;46.220;19.888;2022-12-05T00:17:43;4.42;95.02
72114;SHT31;59989;46.220;19.888;2022-12-05T00:20:47;4.41;95.02
72114;SHT31;59989;46.220;19.888;2022-12-05T00:23:51;4.42;95.02
72114;SHT31;59989;46.220;19.888;2022-12-05T00:26:54;4.42;95.07
72114;SHT31;59989;46.220;19.888;2022-12-05T00:29:57;4.44;94.93
72114;SHT31;59989;46.220;19.888;2022-12-05T00:33:00;4.42;95.02
72114;SHT31;59989;46.220;19.888;2022-12-05T00:36:05;4.45;94.94
72114;SHT31;59989;46.220;19.888;2022-12-05T00:39:10;4.44;94.95
72114;SHT31;59989;46.220;19.888;2022-12-05T00:42:13;4.44;94.92
72114;SHT31;59989;46.220;19.888;2022-12-05T00:45:15;4.46;94.81
72114;SHT31;59989;46.220;19.888;2022-12-05T00:48:17;4.45;94.79
72114;SHT31;59989;46.220;19.888;2022-12-05T00:51:22;4.49;94.65
72114;SHT31;59989;46.220;19.888;2022-12-05T00:54:25;4.53;94.24
72114;SHT31;59989;46.220;19.888;2022-12-05T00:57:27;4.53;94.51
72114;SHT31;59989;46.220;19.888;2022-12-05T01:00:30;4.53;94.50
72114;SHT31;59989;46.220;19.888;2022-12-05T01:03:33;4.53;94.59
72114;SHT31;59989;46.220;19.888;2022-12-05T01:06:36;4.53;94.64
72114;SHT31;59989;46.220;19.888;2022-12-05T01:09:39;4.52;94.52
72114;SHT31;59989;46.220;19.888;2022-12-05T01:12:41;4.55;94.82
72114;SHT31;59989;46.220;19.888;2022-12-05T01:15:44;4.52;94.76
72114;SHT31;59989;46.220;19.888;2022-12-05T01:18:46;4.50;94.81
72114;SHT31;59989;46.220;19.888;2022-12-05T01:21:49;4.48;94.94
72114;SHT31;59989;46.220;19.888;2022-12-05T01:24:52;4.48;94.91
72114;SHT31;59989;46.220;19.888;2022-12-05T01:27:54;4.46;95.10
72114;SHT31;59989;46.220;19.888;2022-12-05T01:30:56;4.44;95.06
72114;SHT31;59989;46.220;19.888;2022-12-05T01:34:00;4.45;95.00
72114;SHT31;59989;46.220;19.888;2022-12-05T01:37:03;4.49;95.03
72114;SHT31;59989;46.220;19.888;2022-12-05T01:40:06;4.46;95.04
72114;SHT31;59989;46.220;19.888;2022-12-05T01:43:17;4.48;95.02
72114;SHT31;59989;46.220;19.888;2022-12-05T01:46:19;4.50;94.92
72114;SHT31;59989;46.220;19.888;2022-12-05T01:49:27;4.55;94.85
72114;SHT31;59989;46.220;19.888;2022-12-05T01:52:32;4.52;94.88
72114;SHT31;59989;46.220;19.888;2022-12-05T01:55:35;4.52;94.77
72114;SHT31;59989;46.220;19.888;2022-12-05T01:58:39;4.53;94.73
72114;SHT31;59989;46.220;19.888;2022-12-05T02:01:43;4.52;94.90
72114;SHT31;59989;46.220;19.888;2022-12-05T02:04:59;4.53;94.79
72114;SHT31;59989;46.220;19.888;2022-12-05T02:08:08;4.55;94.77
72114;SHT31;59989;46.220;19.888;2022-12-05T02:11:11;4.55;94.85
72114;SHT31;59989;46.220;19.888;2022-12-05T02:14:41;4.56;94.56
72114;SHT31;59989;46.220;19.888;2022-12-05T02:34:59;4.65;94.16
72114;SHT31;59989;46.220;19.888;2022-12-05T02:38:25;4.65;94.13
72114;SHT31;59989;46.220;19.888;2022-12-05T02:44:45;4.70;93.79
72114;SHT31;59989;46.220;19.888;2022-12-05T02:47:51;4.67;93.86
72114;SHT31;59989;46.220;19.888;2022-12-05T02:50:56;4.72;93.65
72114;SHT31;59989;46.220;19.888;2022-12-05T02:54:04;4.70;93.75
72114;SHT31;59989;46.220;19.888;2022-12-05T02:57:09;4.74;93.39
72114;SHT31;59989;46.220;19.888;2022-12-05T03:00:13;4.72;93.61
72114;SHT31;59989;46.220;19.888;2022-12-05T03:03:18;4.72;93.59
72114;SHT31;59989;46.220;19.888;2022-12-05T03:06:31;4.72;93.57
72114;SHT31;59989;46.220;19.888;2022-12-05T03:09:48;4.69;93.64
72114;SHT31;59989;46.220;19.888;2022-12-05T03:12:55;4.73;93.34
72114;SHT31;59989;46.220;19.888;2022-12-05T03:16:02;4.76;93.40
72114;SHT31;59989;46.220;19.888;2022-12-05T03:19:29;4.73;93.53
72114;SHT31;59989;46.220;19.888;2022-12-05T03:22:41;4.72;93.50
72114;SHT31;59989;46.220;19.888;2022-12-05T03:32:23;4.72;93.23
72114;SHT31;59989;46.220;19.888;2022-12-05T03:35:36;4.77;93.04
72114;SHT31;59989;46.220;19.888;2022-12-05T03:38:47;4.77;93.15
72114;SHT31;59989;46.220;19.888;2022-12-05T03:41:58;4.77;93.04
72114;SHT31;59989;46.220;19.888;2022-12-05T03:45:07;4.79;93.15
72114;SHT31;59989;46.220;19.888;2022-12-05T03:48:30;4.80;92.79
72114;SHT31;59989;46.220;19.888;2022-12-05T03:51:38;4.83;92.74
72114;SHT31;59989;46.220;19.888;2022-12-05T03:54:46;4.83;92.48
72114;SHT31;59989;46.220;19.888;2022-12-05T03:58:05;4.84;92.59
72114;SHT31;59989;46.220;19.888;2022-12-05T04:01:09;4.83;92.71
72114;SHT31;59989;46.220;19.888;2022-12-05T04:04:17;4.81;92.74
72114;SHT31;59989;46.220;19.888;2022-12-05T04:07:23;4.83;92.48
72114;SHT31;59989;46.220;19.888;2022-12-05T04:10:34;4.83;92.72
72114;SHT31;59989;46.220;19.888;2022-12-05T04:13:53;4.81;92.96
72114;SHT31;59989;46.220;19.888;2022-12-05T04:17:02;4.79;92.75
72114;SHT31;59989;46.220;19.888;2022-12-05T04:20:14;4.81;92.68
72114;SHT31;59989;46.220;19.888;2022-12-05T04:23:37;4.79;93.18
72114;SHT31;59989;46.220;19.888;2022-12-05T04:26:47;4.77;93.07
72114;SHT31;59989;46.220;19.888;2022-12-05T04:30:09;4.77;93.19
72114;SHT31;59989;46.220;19.888;2022-12-05T04:37:04;4.79;93.08
72114;SHT31;59989;46.220;19.888;2022-12-05T04:40:16;4.76;93.06
72114;SHT31;59989;46.220;19.888;2022-12-05T04:43:20;4.79;93.15
72114;SHT31;59989;46.220;19.888;2022-12-05T04:46:24;4.74;92.98
72114;SHT31;59989;46.220;19.888;2022-12-05T04:49:28;4.76;93.03
72114;SHT31;59989;46.220;19.888;2022-12-05T04:52:32;4.72;93.31
72114;SHT31;59989;46.220;19.888;2022-12-05T04:55:38;4.70;93.37
72114;SHT31;59989;46.220;19.888;2022-12-05T04:58:43;4.67;93.75
72114;SHT31;59989;46.220;19.888;2022-12-05T05:01:53;4.56;94.11
72114;SHT31;59989;46.220;19.888;2022-12-05T05:04:57;4.55;94.30
72114;SHT31;59989;46.220;19.888;2022-12-05T05:08:01;4.50;94.58
72114;SHT31;59989;46.220;19.888;2022-12-05T05:14:23;4.46;94.79
72114;SHT31;59989;46.220;19.888;2022-12-05T05:17:26;4.44;94.76
72114;SHT31;59989;46.220;19.888;2022-12-05T05:20:28;4.41;94.90
72114;SHT31;59989;46.220;19.888;2022-12-05T05:23:31;4.39;94.91
72114;SHT31;59989;46.220;19.888;2022-12-05T05:26:35;4.36;94.89
72114;SHT31;59989;46.220;19.888;2022-12-05T05:29:38;4.39;94.81
72114;SHT31;59989;46.220;19.888;2022-12-05T05:32:40;4.36;94.78
72114;SHT31;59989;46.220;19.888;2022-12-05T05:35:43;4.38;94.65
72114;SHT31;59989;46.220;19.888;2022-12-05T05:38:47;4.45;94.54
72114;SHT31;59989;46.220;19.888;2022-12-05T05:41:51;4.48;94.33
72114;SHT31;59989;46.220;19.888;2022-12-05T05:44:53;4.45;94.21
72114;SHT31;59989;46.220;19.888;2022-12-05T05:47:55;4.48;94.20
72114;SHT31;59989;46.220;19.888;2022-12-05T05:50:59;4.45;94.19
72114;SHT31;59989;46.220;19.888;2022-12-05T05:54:01;4.45;94.29
72114;SHT31;59989;46.220;19.888;2022-12-05T05:57:04;4.41;94.34
72114;SHT31;59989;46.220;19.888;2022-12-05T06:00:07;4.42;94.15
72114;SHT31;59989;46.220;19.888;2022-12-05T06:03:10;4.36;94.22
72114;SHT31;59989;46.220;19.888;2022-12-05T06:06:14;4.35;94.19
72114;SHT31;59989;46.220;19.888;2022-12-05T06:09:17;4.34;94.26
72114;SHT31;59989;46.220;19.888;2022-12-05T06:12:19;4.29;94.32
72114;SHT31;59989;46.220;19.888;2022-12-05T06:15:22;4.25;94.27
72114;SHT31;59989;46.220;19.888;2022-12-05T06:18:25;4.29;94.22
72114;SHT31;59989;46.220;19.888;2022-12-05T06:21:27;4.29;94.26
72114;SHT31;59989;46.220;19.888;2022-12-05T06:24:29;4.35;93.99
72114;SHT31;59989;46.220;19.888;2022-12-05T06:27:32;4.35;93.74
72114;SHT31;59989;46.220;19.888;2022-12-05T06:30:37;4.38;93.77
72114;SHT31;59989;46.220;19.888;2022-12-05T06:33:42;4.34;93.79
72114;SHT31;59989;46.220;19.888;2022-12-05T06:36:46;4.39;93.51
72114;SHT31;59989;46.220;19.888;2022-12-05T06:39:50;4.44;93.45
72114;SHT31;59989;46.220;19.888;2022-12-05T06:42:53;4.42;93.36
72114;SHT31;59989;46.220;19.888;2022-12-05T06:45:55;4.41;93.56
72114;SHT31;59989;46.220;19.888;2022-12-05T06:48:58;4.41;93.50
72114;SHT31;59989;46.220;19.888;2022-12-05T06:52:01;4.42;93.72
72114;SHT31;59989;46.220;19.888;2022-12-05T06:55:04;4.45;93.38
72114;SHT31;59989;46.220;19.888;2022-12-05T06:58:07;4.49;93.27
72114;SHT31;59989;46.220;19.888;2022-12-05T07:01:15;4.52;93.26
72114;SHT31;59989;46.220;19.888;2022-12-05T07:04:37;4.57;93.05
72114;SHT31;59989;46.220;19.888;2022-12-05T07:07:40;4.60;93.09
72114;SHT31;59989;46.220;19.888;2022-12-05T07:10:49;4.63;93.11
72114;SHT31;59989;46.220;19.888;2022-12-05T07:13:52;4.69;92.82
72114;SHT31;59989;46.220;19.888;2022-12-05T07:16:55;4.73;92.68
72114;SHT31;59989;46.220;19.888;2022-12-05T07:19:57;4.74;92.73
72114;SHT31;59989;46.220;19.888;2022-12-05T07:23:00;4.77;92.57
72114;SHT31;59989;46.220;19.888;2022-12-05T07:26:04;4.84;92.42
72114;SHT31;59989;46.220;19.888;2022-12-05T07:29:08;4.81;92.56
72114;SHT31;59989;46.220;19.888;2022-12-05T07:32:11;4.84;92.45
72114;SHT31;59989;46.220;19.888;2022-12-05T07:35:13;4.90;91.97
72114;SHT31;59989;46.220;19.888;2022-12-05T07:38:16;4.93;92.23
72114;SHT31;59989;46.220;19.888;2022-12-05T07:41:21;5.01;92.14
72114;SHT31;59989;46.220;19.888;2022-12-05T07:44:24;5.07;91.88
72114;SHT31;59989;46.220;19.888;2022-12-05T07:47:28;5.13;91.43
72114;SHT31;59989;46.220;19.888;2022-12-05T07:50:32;5.13;91.08
72114;SHT31;59989;46.220;19.888;2022-12-05T07:53:35;5.21;91.05
72114;SHT31;59989;46.220;19.888;2022-12-05T07:56:38;5.25;90.61
72114;SHT31;59989;46.220;19.888;2022-12-05T07:59:48;5.28;90.03
72114;SHT31;59989;46.220;19.888;2022-12-05T08:02:51;5.49;90.21
72114;SHT31;59989;46.220;19.888;2022-12-05T08:05:54;5.70;89.43
72114;SHT31;59989;46.220;19.888;2022-12-05T08:08:56;5.80;89.04
72114;SHT31;59989;46.220;19.888;2022-12-05T08:11:59;5.99;88.75
72114;SHT31;59989;46.220;19.888;2022-12-05T08:15:01;6.22;87.80
72114;SHT31;59989;46.220;19.888;2022-12-05T08:18:04;6.32;87.19
72114;SHT31;59989;46.220;19.888;2022-12-05T08:21:12;6.51;86.85
72114;SHT31;59989;46.220;19.888;2022-12-05T08:24:15;6.79;86.49
72114;SHT31;59989;46.220;19.888;2022-12-05T08:27:17;6.78;86.16
72114;SHT31;59989;46.220;19.888;2022-12-05T08:30:20;6.96;85.36
72114;SHT31;59989;46.220;19.888;2022-12-05T08:33:23;7.04;85.07
72114;SHT31;59989;46.220;19.888;2022-12-05T08:36:27;7.00;84.48
72114;SHT31;59989;46.220;19.888;2022-12-05T08:39:30;7.14;84.73
72114;SHT31;59989;46.220;19.888;2022-12-05T08:42:39;7.13;83.71
72114;SHT31;59989;46.220;19.888;2022-12-05T08:45:48;7.37;83.03
72114;SHT31;59989;46.220;19.888;2022-12-05T08:48:51;7.57;83.37
72114;SHT31;59989;46.220;19.888;2022-12-05T08:51:54;7.32;83.35
72114;SHT31;59989;46.220;19.888;2022-12-05T08:54:56;7.48;82.69
72114;SHT31;59989;46.220;19.888;2022-12-05T08:57:59;7.44;83.00
72114;SHT31;59989;46.220;19.888;2022-12-05T09:01:07;7.71;82.59
72114;SHT31;59989;46.220;19.888;2022-12-05T09:04:10;7.86;82.19
72114;SHT31;59989;46.220;19.888;2022-12-05T09:07:13;7.98;81.46
72114;SHT31;59989;46.220;19.888;2022-12-05T09:10:16;7.99;80.72
72114;SHT31;59989;46.220;19.888;2022-12-05T09:13:18;8.02;80.99
72114;SHT31;59989;46.220;19.888;2022-12-05T09:16:24;7.68;81.56
72114;SHT31;59989;46.220;19.888;2022-12-05T09:19:27;7.50;82.67
72114;SHT31;59989;46.220;19.888;2022-12-05T09:22:30;7.44;83.30
72114;SHT31;59989;46.220;19.888;2022-12-05T09:25:32;7.24;83.55
72114;SHT31;59989;46.220;19.888;2022-12-05T09:28:35;7.11;84.08
72114;SHT31;59989;46.220;19.888;2022-12-05T09:31:38;7.03;84.57
72114;SHT31;59989;46.220;19.888;2022-12-05T09:34:40;7.01;85.16
72114;SHT31;59989;46.220;19.888;2022-12-05T09:37:43;7.13;84.57
72114;SHT31;59989;46.220;19.888;2022-12-05T09:40:53;7.37;84.00
72114;SHT31;59989;46.220;19.888;2022-12-05T09:44:04;7.38;83.97
72114;SHT31;59989;46.220;19.888;2022-12-05T09:47:22;7.51;84.30
72114;SHT31;59989;46.220;19.888;2022-12-05T09:50:44;7.44;83.92
72114;SHT31;59989;46.220;19.888;2022-12-05T09:53:48;7.81;82.82
72114;SHT31;59989;46.220;19.888;2022-12-05T09:56:51;8.09;82.02
72114;SHT31;59989;46.220;19.888;2022-12-05T09:59:54;8.55;81.28
72114;SHT31;59989;46.220;19.888;2022-12-05T10:06:23;9.33;79.21
72114;SHT31;59989;46.220;19.888;2022-12-05T10:09:48;9.18;78.54
72114;SHT31;59989;46.220;19.888;2022-12-05T10:16:07;9.47;79.02
72114;SHT31;59989;46.220;19.888;2022-12-05T10:19:15;9.69;78.60
72114;SHT31;59989;46.220;19.888;2022-12-05T10:25:35;9.67;78.14
72114;SHT31;59989;46.220;19.888;2022-12-05T10:35:18;9.98;77.13
72114;SHT31;59989;46.220;19.888;2022-12-05T10:38:26;10.36;76.79
72114;SHT31;59989;46.220;19.888;2022-12-05T10:41:30;10.26;76.47
72114;SHT31;59989;46.220;19.888;2022-12-05T10:44:33;10.36;76.55
72114;SHT31;59989;46.220;19.888;2022-12-05T10:47:35;10.87;74.00
72114;SHT31;59989;46.220;19.888;2022-12-05T10:50:39;11.42;72.14
72114;SHT31;59989;46.220;19.888;2022-12-05T10:53:47;11.42;72.34
72114;SHT31;59989;46.220;19.888;2022-12-05T10:56:52;11.46;72.67
72114;SHT31;59989;46.220;19.888;2022-12-05T10:59:56;11.87;70.96
72114;SHT31;59989;46.220;19.888;2022-12-05T11:03:02;12.42;69.32
72114;SHT31;59989;46.220;19.888;2022-12-05T11:06:17;12.81;67.56
72114;SHT31;59989;46.220;19.888;2022-12-05T11:09:27;13.72;65.98
72114;SHT31;59989;46.220;19.888;2022-12-05T11:15:44;13.51;64.52
72114;SHT31;59989;46.220;19.888;2022-12-05T11:18:53;13.23;65.07
72114;SHT31;59989;46.220;19.888;2022-12-05T11:21:56;14.28;63.46
72114;SHT31;59989;46.220;19.888;2022-12-05T11:24:59;13.16;64.45
72114;SHT31;59989;46.220;19.888;2022-12-05T11:31:25;13.14;66.81
72114;SHT31;59989;46.220;19.888;2022-12-05T11:34:38;12.93;66.67
72114;SHT31;59989;46.220;19.888;2022-12-05T11:37:51;13.07;66.95
72114;SHT31;59989;46.220;19.888;2022-12-05T11:48:39;13.41;66.13
72114;SHT31;59989;46.220;19.888;2022-12-05T11:52:11;13.36;65.89
72114;SHT31;59989;46.220;19.888;2022-12-05T11:58:40;13.64;64.83
72114;SHT31;59989;46.220;19.888;2022-12-05T12:01:57;13.43;65.60
72114;SHT31;59989;46.220;19.888;2022-12-05T12:08:39;11.94;70.59
72114;SHT31;59989;46.220;19.888;2022-12-05T12:11:57;11.87;70.58
72114;SHT31;59989;46.220;19.888;2022-12-05T12:29:23;13.78;64.20
72114;SHT31;59989;46.220;19.888;2022-12-05T12:49:59;10.48;75.93
72114;SHT31;59989;46.220;19.888;2022-12-05T12:53:29;10.42;76.29
72114;SHT31;59989;46.220;19.888;2022-12-05T12:56:54;10.53;76.62
72114;SHT31;59989;46.220;19.888;2022-12-05T13:00:26;10.79;76.22
72114;SHT31;59989;46.220;19.888;2022-12-05T13:03:45;11.12;75.18
72114;SHT31;59989;46.220;19.888;2022-12-05T13:07:01;11.77;73.66
72114;SHT31;59989;46.220;19.888;2022-12-05T13:13:34;12.51;70.91
72114;SHT31;59989;46.220;19.888;2022-12-05T13:16:41;12.18;71.11
72114;SHT31;59989;46.220;19.888;2022-12-05T13:19:50;11.77;71.90
72114;SHT31;59989;46.220;19.888;2022-12-05T13:22:53;11.52;72.29
72114;SHT31;59989;46.220;19.888;2022-12-05T13:25:58;11.79;71.85
72114;SHT31;59989;46.220;19.888;2022-12-05T13:29:02;11.45;72.57
72114;SHT31;59989;46.220;19.888;2022-12-05T13:32:06;11.29;72.98
72114;SHT31;59989;46.220;19.888;2022-12-05T13:38:46;11.42;72.79
72114;SHT31;59989;46.220;19.888;2022-12-05T13:42:26;10.93;74.14
72114;SHT31;59989;46.220;19.888;2022-12-05T13:45:30;10.87;75.09
72114;SHT31;59989;46.220;19.888;2022-12-05T13:48:36;10.77;75.48
72114;SHT31;59989;46.220;19.888;2022-12-05T13:51:42;10.55;76.07
72114;SHT31;59989;46.220;19.888;2022-12-05T13:55:13;10.38;76.96
72114;SHT31;59989;46.220;19.888;2022-12-05T14:04:46;9.85;78.41
72114;SHT31;59989;46.220;19.888;2022-12-05T14:07:55;9.74;79.05
72114;SHT31;59989;46.220;19.888;2022-12-05T14:11:08;9.58;79.82
72114;SHT31;59989;46.220;19.888;2022-12-05T14:14:11;9.47;79.84
72114;SHT31;59989;46.220;19.888;2022-12-05T14:17:13;9.39;80.25
72114;SHT31;59989;46.220;19.888;2022-12-05T14:24:03;9.26;81.05
72114;SHT31;59989;46.220;19.888;2022-12-05T14:27:16;9.22;81.26
72114;SHT31;59989;46.220;19.888;2022-12-05T14:37:22;9.15;81.99
72114;SHT31;59989;46.220;19.888;2022-12-05T14:40:38;9.13;82.10
72114;SHT31;59989;46.220;19.888;2022-12-05T14:43:41;9.02;82.64
72114;SHT31;59989;46.220;19.888;2022-12-05T14:46:44;8.99;82.70
72114;SHT31;59989;46.220;19.888;2022-12-05T14:53:20;8.91;83.46
72114;SHT31;59989;46.220;19.888;2022-12-05T14:56:25;8.85;83.58
72114;SHT31;59989;46.220;19.888;2022-12-05T14:59:32;8.84;83.27
72114;SHT31;59989;46.220;19.888;2022-12-05T15:02:43;8.79;83.33
72114;SHT31;59989;46.220;19.888;2022-12-05T15:05:47;8.81;83.22
72114;SHT31;59989;46.220;19.888;2022-12-05T15:08:53;8.79;83.12
72114;SHT31;59989;46.220;19.888;2022-12-05T15:18:46;8.67;84.07
72114;SHT31;59989;46.220;19.888;2022-12-05T15:21:53;8.63;84.42
72114;SHT31;59989;46.220;19.888;2022-12-05T15:25:13;8.60;84.62
72114;SHT31;59989;46.220;19.888;2022-12-05T15:28:18;8.54;84.70
72114;SHT31;59989;46.220;19.888;2022-12-05T15:31:21;8.51;85.09
72114;SHT31;59989;46.220;19.888;2022-12-05T15:40:49;8.44;85.37
72114;SHT31;59989;46.220;19.888;2022-12-05T15:43:55;8.40;85.87
72114;SHT31;59989;46.220;19.888;2022-12-05T15:46:58;8.37;86.01
72114;SHT31;59989;46.220;19.888;2022-12-05T15:50:01;8.33;86.17
72114;SHT31;59989;46.220;19.888;2022-12-05T15:53:17;8.32;86.05
72114;SHT31;59989;46.220;19.888;2022-12-05T15:56:28;8.30;86.18
72114;SHT31;59989;46.220;19.888;2022-12-05T15:59:40;8.30;85.85
72114;SHT31;59989;46.220;19.888;2022-12-05T16:03:02;8.26;85.90
72114;SHT31;59989;46.220;19.888;2022-12-05T16:06:14;8.23;85.43
72114;SHT31;59989;46.220;19.888;2022-12-05T16:09:20;8.23;85.07
72114;SHT31;59989;46.220;19.888;2022-12-05T16:15:32;8.22;84.33
72114;SHT31;59989;46.220;19.888;2022-12-05T16:18:35;8.13;84.57
72114;SHT31;59989;46.220;19.888;2022-12-05T16:21:57;8.13;84.59
72114;SHT31;59989;46.220;19.888;2022-12-05T16:25:01;8.14;84.22
72114;SHT31;59989;46.220;19.888;2022-12-05T16:31:14;8.06;84.46
72114;SHT31;59989;46.220;19.888;2022-12-05T16:34:18;7.99;85.04
72114;SHT31;59989;46.220;19.888;2022-12-05T16:37:26;7.93;85.46
72114;SHT31;59989;46.220;19.888;2022-12-05T16:40:32;7.86;85.56
72114;SHT31;59989;46.220;19.888;2022-12-05T16:49:40;7.68;86.43
72114;SHT31;59989;46.220;19.888;2022-12-05T16:52:48;7.65;86.47
72114;SHT31;59989;46.220;19.888;2022-12-05T16:55:50;7.59;86.48
72114;SHT31;59989;46.220;19.888;2022-12-05T16:58:54;7.54;86.51
72114;SHT31;59989;46.220;19.888;2022-12-05T17:01:57;7.48;86.56
72114;SHT31;59989;46.220;19.888;2022-12-05T17:05:01;7.41;86.53
72114;SHT31;59989;46.220;19.888;2022-12-05T17:08:05;7.34;86.33
72114;SHT31;59989;46.220;19.888;2022-12-05T17:11:19;7.30;86.63
72114;SHT31;59989;46.220;19.888;2022-12-05T17:14:23;7.26;86.56
72114;SHT31;59989;46.220;19.888;2022-12-05T17:17:25;7.20;86.70
72114;SHT31;59989;46.220;19.888;2022-12-05T17:20:32;7.16;86.68
72114;SHT31;59989;46.220;19.888;2022-12-05T17:23:34;7.11;86.71
72114;SHT31;59989;46.220;19.888;2022-12-05T17:26:36;7.07;86.90
72114;SHT31;59989;46.220;19.888;2022-12-05T17:29:40;7.03;86.43
72114;SHT31;59989;46.220;19.888;2022-12-05T17:32:43;7.01;86.56
72114;SHT31;59989;46.220;19.888;2022-12-05T17:35:46;6.99;86.83
72114;SHT31;59989;46.220;19.888;2022-12-05T17:38:48;6.97;86.31
72114;SHT31;59989;46.220;19.888;2022-12-05T17:41:51;6.95;86.26
72114;SHT31;59989;46.220;19.888;2022-12-05T17:44:54;6.88;86.14
72114;SHT31;59989;46.220;19.888;2022-12-05T17:47:56;6.85;86.24
72114;SHT31;59989;46.220;19.888;2022-12-05T17:51:00;6.83;86.16
72114;SHT31;59989;46.220;19.888;2022-12-05T17:54:04;6.80;86.29
72114;SHT31;59989;46.220;19.888;2022-12-05T17:57:06;6.79;86.06
72114;SHT31;59989;46.220;19.888;2022-12-05T18:00:11;6.75;86.04
72114;SHT31;59989;46.220;19.888;2022-12-05T18:03:16;6.75;86.04
72114;SHT31;59989;46.220;19.888;2022-12-05T18:06:19;6.73;86.03
72114;SHT31;59989;46.220;19.888;2022-12-05T18:09:22;6.73;86.17
72114;SHT31;59989;46.220;19.888;2022-12-05T18:12:25;6.71;86.22
72114;SHT31;59989;46.220;19.888;2022-12-05T18:15:28;6.68;86.11
72114;SHT31;59989;46.220;19.888;2022-12-05T18:18:30;6.65;86.21
72114;SHT31;59989;46.220;19.888;2022-12-05T18:21:33;6.62;86.03
72114;SHT31;59989;46.220;19.888;2022-12-05T18:24:35;6.62;86.30
72114;SHT31;59989;46.220;19.888;2022-12-05T18:27:39;6.59;86.16
72114;SHT31;59989;46.220;19.888;2022-12-05T18:30:46;6.58;86.21
72114;SHT31;59989;46.220;19.888;2022-12-05T18:33:49;6.53;86.28
72114;SHT31;59989;46.220;19.888;2022-12-05T18:36:52;6.53;86.17
72114;SHT31;59989;46.220;19.888;2022-12-05T18:39:54;6.51;86.18
72114;SHT31;59989;46.220;19.888;2022-12-05T18:42:57;6.49;86.49
72114;SHT31;59989;46.220;19.888;2022-12-05T18:46:02;6.44;86.59
72114;SHT31;59989;46.220;19.888;2022-12-05T18:49:05;6.41;86.62
72114;SHT31;59989;46.220;19.888;2022-12-05T18:52:07;6.40;86.57
72114;SHT31;59989;46.220;19.888;2022-12-05T18:55:10;6.37;86.70
72114;SHT31;59989;46.220;19.888;2022-12-05T18:58:21;6.34;86.52
72114;SHT31;59989;46.220;19.888;2022-12-05T19:01:24;6.37;86.52
72114;SHT31;59989;46.220;19.888;2022-12-05T19:04:28;6.30;86.59
72114;SHT31;59989;46.220;19.888;2022-12-05T19:07:30;6.27;86.81
72114;SHT31;59989;46.220;19.888;2022-12-05T19:10:41;6.22;87.22
72114;SHT31;59989;46.220;19.888;2022-12-05T19:13:44;6.11;87.62
72114;SHT31;59989;46.220;19.888;2022-12-05T19:16:51;6.06;87.61
72114;SHT31;59989;46.220;19.888;2022-12-05T19:20:01;6.04;87.81
72114;SHT31;59989;46.220;19.888;2022-12-05T19:23:03;6.00;87.97
72114;SHT31;59989;46.220;19.888;2022-12-05T19:26:07;5.92;88.29
72114;SHT31;59989;46.220;19.888;2022-12-05T19:29:11;5.89;88.16
72114;SHT31;59989;46.220;19.888;2022-12-05T19:32:14;5.90;88.22
72114;SHT31;59989;46.220;19.888;2022-12-05T19:35:17;5.89;88.06
72114;SHT31;59989;46.220;19.888;2022-12-05T19:38:20;5.89;88.17
72114;SHT31;59989;46.220;19.888;2022-12-05T19:41:26;5.85;88.00
72114;SHT31;59989;46.220;19.888;2022-12-05T19:44:30;5.82;88.07
72114;SHT31;59989;46.220;19.888;2022-12-05T19:47:32;5.83;88.16
72114;SHT31;59989;46.220;19.888;2022-12-05T19:50:36;5.77;88.22
72114;SHT31;59989;46.220;19.888;2022-12-05T19:53:40;5.73;88.25
72114;SHT31;59989;46.220;19.888;2022-12-05T19:56:43;5.65;88.65
72114;SHT31;59989;46.220;19.888;2022-12-05T19:59:46;5.58;88.73
72114;SHT31;59989;46.220;19.888;2022-12-05T20:02:49;5.52;89.06
72114;SHT31;59989;46.220;19.888;2022-12-05T20:05:58;5.48;89.17
72114;SHT31;59989;46.220;19.888;2022-12-05T20:09:02;5.42;89.46
72114;SHT31;59989;46.220;19.888;2022-12-05T20:12:04;5.38;89.63
72114;SHT31;59989;46.220;19.888;2022-12-05T20:15:08;5.36;89.82
72114;SHT31;59989;46.220;19.888;2022-12-05T20:18:13;5.31;89.88
72114;SHT31;59989;46.220;19.888;2022-12-05T20:21:20;5.32;89.79
72114;SHT31;59989;46.220;19.888;2022-12-05T20:24:23;5.30;89.95
72114;SHT31;59989;46.220;19.888;2022-12-05T20:27:26;5.34;89.66
72114;SHT31;59989;46.220;19.888;2022-12-05T20:30:30;5.38;89.55
72114;SHT31;59989;46.220;19.888;2022-12-05T20:33:34;5.28;89.96
72114;SHT31;59989;46.220;19.888;2022-12-05T20:36:37;5.27;89.99
72114;SHT31;59989;46.220;19.888;2022-12-05T20:39:41;5.27;90.15
72114;SHT31;59989;46.220;19.888;2022-12-05T20:42:44;5.21;90.25
72114;SHT31;59989;46.220;19.888;2022-12-05T20:45:48;5.21;90.31
72114;SHT31;59989;46.220;19.888;2022-12-05T20:48:51;5.14;90.62
72114;SHT31;59989;46.220;19.888;2022-12-05T20:51:54;5.13;90.60
72114;SHT31;59989;46.220;19.888;2022-12-05T20:54:58;5.08;90.61
72114;SHT31;59989;46.220;19.888;2022-12-05T20:58:00;5.04;90.70
72114;SHT31;59989;46.220;19.888;2022-12-05T21:01:10;5.13;90.39
72114;SHT31;59989;46.220;19.888;2022-12-05T21:04:14;5.10;90.45
72114;SHT31;59989;46.220;19.888;2022-12-05T21:07:17;5.07;90.56
72114;SHT31;59989;46.220;19.888;2022-12-05T21:10:24;5.10;90.39
72114;SHT31;59989;46.220;19.888;2022-12-05T21:13:26;5.08;90.39
72114;SHT31;59989;46.220;19.888;2022-12-05T21:16:29;5.04;90.52
72114;SHT31;59989;46.220;19.888;2022-12-05T21:19:31;4.98;90.67
72114;SHT31;59989;46.220;19.888;2022-12-05T21:22:34;4.93;90.78
72114;SHT31;59989;46.220;19.888;2022-12-05T21:25:37;4.93;90.85
72114;SHT31;59989;46.220;19.888;2022-12-05T21:28:40;4.87;90.94
72114;SHT31;59989;46.220;19.888;2022-12-05T21:31:43;4.86;91.11
72114;SHT31;59989;46.220;19.888;2022-12-05T21:34:47;4.84;91.01
72114;SHT31;59989;46.220;19.888;2022-12-05T21:37:50;4.81;91.18
72114;SHT31;59989;46.220;19.888;2022-12-05T21:40:54;4.81;91.40
72114;SHT31;59989;46.220;19.888;2022-12-05T21:43:56;4.73;91.54
72114;SHT31;59989;46.220;19.888;2022-12-05T21:46:58;4.66;91.69
72114;SHT31;59989;46.220;19.888;2022-12-05T21:50:01;4.67;91.76
72114;SHT31;59989;46.220;19.888;2022-12-05T21:53:04;4.67;91.67
72114;SHT31;59989;46.220;19.888;2022-12-05T21:56:10;4.63;91.88
72114;SHT31;59989;46.220;19.888;2022-12-05T21:59:13;4.67;91.79
72114;SHT31;59989;46.220;19.888;2022-12-05T22:02:15;4.69;91.78
72114;SHT31;59989;46.220;19.888;2022-12-05T22:05:18;4.69;91.75
72114;SHT31;59989;46.220;19.888;2022-12-05T22:08:20;4.65;91.82
72114;SHT31;59989;46.220;19.888;2022-12-05T22:11:26;4.72;91.67